ドバイ の空港の天気 - METARとTAF

ドバイ国際空港 ( OMDB / DXB ) - アラブ首長国連邦 ドバイ
飛行場実況気象(Metar)
観測時間02/21 05:00 GST (02/21 01:00 UTC)
風向・風速南南東 3m/s
視程10km以上
天気現象
全天の8割程度の雲 雲底高度 1220m
気温16℃
湿度68%
気圧1019hPa
METAROMDB 210100Z 16005KT 9999 BKN040 16/10 Q1019 NOSIG
過去の天気等 Google飛行場航空写真 Wunderground天気予報

過去48時間のMETAR

飛行場予報(TAF)
発表時間: 2/21 02:58 GST (2/20 22:58 UTC)
予報対象時間: 21日4時 GST ~ 22日10時 GST
風向・風速南 4m/s
視程10km以上
全天の4割程度の雲 雲底高度 1070m
21日13時 GST ~ 21日15時 GST に徐々に
風向・風速北北西 5m/s
21日22時 GST ~ 21日24時 GST に徐々に
風向・風速南 3m/s
TAF OMDB 202258Z 2100/2206 18007KT 9999 SCT035
BECMG 2109/2111 33010KT
BECMG 2118/2120 19005KT